^^
Meteo Knjazevac Station Historical Data
Daily Summary for June 20, 2021 Units:  Metric    English   Both
Daily Weekly Monthly Yearly Custom
  High: Low: Average:
Temperature: 13.6 °C 4.8 °C 9.5 °C
Dew Point: 8.7 °C 3.4 °C 6.4 °C
Humidity: 91% 70% 81%
Wind Speed: 16.1km/h 0km/h 5.8km/h
Wind Gust: 29km/h - -
Wind- - SW
Pressure: 1026 hPa 1022.2 hPa -
Precipitation: 0 mm    
Historical Graphs
 
 
Tabular Data for June 20, 2021
Time Temperature Dew Point Pressure Wind Wind Speed Wind Gust Humidity Rainfall Rate (Hourly) solar Conditions
00:00 8.7 °C 6.2 °C 1026 hPa West 8 km/h 14.5 km/h 84% 0 mm 0 W/m2
00:10 8.7 °C 6.2 °C 1026 hPa WSW 8 km/h 9.7 km/h 84% 0 mm 0 W/m2
00:20 8.7 °C 6.2 °C 1026 hPa WSW 4.8 km/h 12.9 km/h 84% 0 mm 0 W/m2
00:30 8.6 °C 6.2 °C 1026 hPa WSW 1.6 km/h 8 km/h 85% 0 mm 0 W/m2
00:40 8.7 °C 6.3 °C 1025.6 hPa WSW 4.8 km/h 8 km/h 85% 0 mm 0 W/m2
00:50 8.6 °C 6.2 °C 1025.6 hPa WSW 8 km/h 12.9 km/h 85% 0 mm 0 W/m2
01:00 8.7 °C 6.3 °C 1025.6 hPa SW 9.7 km/h 16.1 km/h 85% 0 mm 0 W/m2
01:10 8.7 °C 6.3 °C 1025.6 hPa SW 8 km/h 14.5 km/h 85% 0 mm 0 W/m2
01:20 8.8 °C 6.4 °C 1025.6 hPa WSW 8 km/h 12.9 km/h 85% 0 mm 0 W/m2
01:30 8.8 °C 6.4 °C 1025.6 hPa WSW 4.8 km/h 16.1 km/h 85% 0 mm 0 W/m2
01:40 8.8 °C 6.4 °C 1025.6 hPa WSW 3.2 km/h 9.7 km/h 85% 0 mm 0 W/m2
01:50 8.8 °C 6.4 °C 1025.6 hPa West 3.2 km/h 9.7 km/h 85% 0 mm 0 W/m2
02:00 8.8 °C 6.4 °C 1025.6 hPa WSW 4.8 km/h 9.7 km/h 85% 0 mm 0 W/m2
02:10 8.8 °C 6.4 °C 1025.6 hPa SW 3.2 km/h 11.3 km/h 85% 0 mm 0 W/m2
02:20 8.7 °C 6.3 °C 1025.3 hPa WSW 3.2 km/h 9.7 km/h 85% 0 mm 0 W/m2
02:30 8.7 °C 6.3 °C 1025.3 hPa West 1.6 km/h 4.8 km/h 85% 0 mm 0 W/m2
02:40 8.6 °C 6.2 °C 1025.3 hPa SW 3.2 km/h 4.8 km/h 85% 0 mm 0 W/m2
02:50 8.6 °C 6.2 °C 1025.3 hPa NW 1.6 km/h 3.2 km/h 85% 0 mm 0 W/m2
03:00 8.6 °C 6.2 °C 1025.3 hPa Calm   6.4 km/h 85% 0 mm 0 W/m2
03:10 8.6 °C 6.2 °C 1024.9 hPa ESE 1.6 km/h 8 km/h 85% 0 mm 0 W/m2
03:20 8.6 °C 6.2 °C 1024.9 hPa South 1.6 km/h 8 km/h 85% 0 mm 0 W/m2
03:30 8.6 °C 6.2 °C 1024.9 hPa West 1.6 km/h 8 km/h 85% 0 mm 0 W/m2
03:40 8.6 °C 6.2 °C 1024.9 hPa WSW 1.6 km/h 6.4 km/h 85% 0 mm 0 W/m2
03:50 8.6 °C 6.2 °C 1024.9 hPa West 1.6 km/h 4.8 km/h 85% 0 mm 0 W/m2
04:00 8.6 °C 6.2 °C 1024.9 hPa West 1.6 km/h 4.8 km/h 85% 0 mm 0 W/m2
04:10 8.6 °C 6.2 °C 1024.9 hPa South 3.2 km/h 8 km/h 85% 0 mm 0 W/m2
04:20 8.6 °C 6.2 °C 1024.9 hPa SSW 3.2 km/h 6.4 km/h 85% 0 mm 0 W/m2
04:30 8.7 °C 6.3 °C 1024.9 hPa SSW 1.6 km/h 6.4 km/h 85% 0 mm 0 W/m2
04:40 8.7 °C 6.3 °C 1024.6 hPa SSW 4.8 km/h 8 km/h 85% 0 mm 0 W/m2
04:50 8.7 °C 6.3 °C 1024.6 hPa SSW 1.6 km/h 8 km/h 85% 0 mm 0 W/m2
05:00 8.7 °C 6.3 °C 1024.6 hPa WNW 1.6 km/h 3.2 km/h 85% 0 mm 0 W/m2
05:10 8.8 °C 6.4 °C 1024.9 hPa WSW 3.2 km/h 9.7 km/h 85% 0 mm 0 W/m2
05:20 8.8 °C 6.4 °C 1024.6 hPa SW 3.2 km/h 8 km/h 85% 0 mm 0 W/m2
05:30 8.9 °C 6.5 °C 1024.6 hPa SW 4.8 km/h 11.3 km/h 85% 0 mm 0 W/m2
05:40 8.9 °C 6.5 °C 1024.6 hPa WSW 3.2 km/h 9.7 km/h 85% 0 mm 0 W/m2
05:50 9 °C 6.4 °C 1024.6 hPa WSW 4.8 km/h 11.3 km/h 84% 0 mm 0 W/m2
06:00 9.1 °C 6.6 °C 1024.6 hPa WSW 4.8 km/h 11.3 km/h 84% 0 mm 0 W/m2
06:10 9.2 °C 6.6 °C 1024.6 hPa WSW 8 km/h 12.9 km/h 84% 0 mm 0 W/m2
06:20 9.2 °C 6.6 °C 1024.6 hPa WSW 4.8 km/h 14.5 km/h 84% 0 mm 0 W/m2
06:30 9.2 °C 6.4 °C 1024.6 hPa SW 8 km/h 11.3 km/h 83% 0 mm 0 W/m2
06:40 9 °C 6.3 °C 1024.6 hPa SW 4.8 km/h 11.3 km/h 83% 0 mm 5 W/m2
06:50 9 °C 6.3 °C 1024.6 hPa SW 4.8 km/h 11.3 km/h 83% 0 mm 13 W/m2
07:00 9 °C 6.3 °C 1024.6 hPa SW 4.8 km/h 8 km/h 83% 0 mm 26 W/m2
07:10 9 °C 6.3 °C 1024.6 hPa SW 4.8 km/h 8 km/h 83% 0 mm 25 W/m2
07:20 9 °C 6.3 °C 1024.6 hPa SW 3.2 km/h 9.7 km/h 83% 0 mm 20 W/m2
07:30 9 °C 6.3 °C 1024.6 hPa South 1.6 km/h 8 km/h 83% 0 mm 28 W/m2
07:40 9.1 °C 6.4 °C 1024.6 hPa WSW 3.2 km/h 6.4 km/h 83% 0 mm 37 W/m2
07:50 9.2 °C 6.4 °C 1024.6 hPa WSW 8 km/h 12.9 km/h 83% 0 mm 27 W/m2
08:00 9.4 °C 6.7 °C 1024.6 hPa SW 8 km/h 14.5 km/h 83% 0 mm 40 W/m2
08:10 9.6 °C 6.5 °C 1024.6 hPa SW 8 km/h 14.5 km/h 81% 0 mm 39 W/m2
08:20 9.7 °C 6.6 °C 1024.6 hPa SW 8 km/h 12.9 km/h 81% 0 mm 63 W/m2
08:30 9.8 °C 6.5 °C 1024.6 hPa SW 9.7 km/h 16.1 km/h 80% 0 mm 86 W/m2
08:40 9.9 °C 6.6 °C 1024.6 hPa SW 11.3 km/h 14.5 km/h 80% 0 mm 109 W/m2
08:50 10.1 °C 6.8 °C 1024.6 hPa SW 9.7 km/h 16.1 km/h 80% 0 mm 87 W/m2
09:00 10.2 °C 6.9 °C 1024.6 hPa SW 9.7 km/h 12.9 km/h 80% 0 mm 122 W/m2
09:10 10.3 °C 6.8 °C 1024.6 hPa WSW 9.7 km/h 16.1 km/h 79% 0 mm 105 W/m2
09:20 10.5 °C 7.2 °C 1024.6 hPa WSW 11.3 km/h 19.3 km/h 80% 0 mm 110 W/m2
09:30 10.7 °C 7.6 °C 1024.6 hPa WSW 9.7 km/h 20.9 km/h 81% 0 mm 145 W/m2
09:40 10.8 °C 7.5 °C 1024.6 hPa WSW 8 km/h 20.9 km/h 80% 0 mm 103 W/m2
09:50 10.8 °C 7.5 °C 1024.6 hPa SW 11.3 km/h 19.3 km/h 80% 0 mm 84 W/m2
10:00 10.9 °C 7.8 °C 1024.6 hPa WSW 12.9 km/h 20.9 km/h 81% 0 mm 174 W/m2
10:10 11.1 °C 7.8 °C 1024.6 hPa WSW 16.1 km/h 19.3 km/h 80% 0 mm 159 W/m2
10:20 11.4 °C 8.1 °C 1024.6 hPa WSW 12.9 km/h 22.5 km/h 80% 0 mm 373 W/m2
10:30 11.9 °C 8.4 °C 1024.6 hPa West 8 km/h 19.3 km/h 79% 0 mm 214 W/m2
10:40 12.3 °C 8.6 °C 1024.3 hPa WSW 8 km/h 16.1 km/h 78% 0 mm 386 W/m2
10:50 12.6 °C 8.7 °C 1024.3 hPa WSW 8 km/h 14.5 km/h 77% 0 mm 127 W/m2
11:00 12.4 °C 8.1 °C 1024.3 hPa WSW 9.7 km/h 20.9 km/h 75% 0 mm 134 W/m2
11:10 12.3 °C 8 °C 1023.9 hPa WSW 8 km/h 24.1 km/h 75% 0 mm 91 W/m2
11:20 12.1 °C 7.8 °C 1023.9 hPa WSW 9.7 km/h 22.5 km/h 75% 0 mm 138 W/m2
11:30 12.2 °C 7.9 °C 1023.9 hPa WSW 11.3 km/h 27.4 km/h 75% 0 mm 118 W/m2
11:40 12.3 °C 8 °C 1023.9 hPa WSW 12.9 km/h 20.9 km/h 75% 0 mm 334 W/m2
11:50 12.8 °C 8.3 °C 1023.6 hPa WSW 16.1 km/h 29 km/h 74% 0 mm 386 W/m2
12:00 13.1 °C 8.4 °C 1023.6 hPa WSW 11.3 km/h 27.4 km/h 73% 0 mm 380 W/m2
12:10 13.2 °C 8.3 °C 1023.6 hPa West 12.9 km/h 29 km/h 72% 0 mm 369 W/m2
12:20 13.4 °C 8.4 °C 1023.6 hPa West 9.7 km/h 29 km/h 72% 0 mm 317 W/m2
12:30 13.6 °C 8.2 °C 1023.6 hPa West 14.5 km/h 27.4 km/h 70% 0 mm 354 W/m2
12:40 13.3 °C 7.9 °C 1023.6 hPa WSW 16.1 km/h 27.4 km/h 70% 0 mm 335 W/m2
12:50 13.5 °C 8.1 °C 1023.2 hPa WSW 14.5 km/h 25.7 km/h 70% 0 mm 330 W/m2
13:00 13.2 °C 7.8 °C 1023.2 hPa WSW 11.3 km/h 25.7 km/h 70% 0 mm 316 W/m2
13:10 13.5 °C 8.1 °C 1023.2 hPa West 8 km/h 20.9 km/h 70% 0 mm 155 W/m2
13:20 13.3 °C 7.9 °C 1023.2 hPa WSW 8 km/h 20.9 km/h 70% 0 mm 283 W/m2
13:30 13.4 °C 8.1 °C 1023.2 hPa WSW 11.3 km/h 19.3 km/h 70% 0 mm 247 W/m2
13:40 13.3 °C 7.9 °C 1022.9 hPa WSW 11.3 km/h 20.9 km/h 70% 0 mm 167 W/m2
13:50 13.3 °C 7.9 °C 1022.9 hPa WSW 11.3 km/h 22.5 km/h 70% 0 mm 230 W/m2
14:00 13.2 °C 7.8 °C 1022.9 hPa WSW 9.7 km/h 20.9 km/h 70% 0 mm 129 W/m2
14:10 13.1 °C 7.7 °C 1022.9 hPa WSW 11.3 km/h 24.1 km/h 70% 0 mm 119 W/m2
14:20 12.9 °C 7.9 °C 1022.9 hPa West 12.9 km/h 19.3 km/h 72% 0 mm 68 W/m2
14:30 12.7 °C 7.8 °C 1022.9 hPa WSW 12.9 km/h 20.9 km/h 72% 0 mm 126 W/m2
14:40 12.7 °C 7.8 °C 1022.9 hPa WSW 11.3 km/h 19.3 km/h 72% 0 mm 70 W/m2
14:50 12.5 °C 7.8 °C 1022.9 hPa WSW 9.7 km/h 20.9 km/h 73% 0 mm 70 W/m2
15:00 12.2 °C 7.5 °C 1022.9 hPa WSW 11.3 km/h 19.3 km/h 73% 0 mm 45 W/m2
15:10 12 °C 7.5 °C 1022.9 hPa WSW 4.8 km/h 19.3 km/h 74% 0 mm 37 W/m2
15:20 11.8 °C 7.3 °C 1022.9 hPa WSW 8 km/h 14.5 km/h 74% 0 mm 26 W/m2
15:30 11.7 °C 7.4 °C 1022.9 hPa WSW 4.8 km/h 14.5 km/h 75% 0 mm 19 W/m2
15:40 11.6 °C 7.3 °C 1022.9 hPa WSW 8 km/h 14.5 km/h 75% 0 mm 12 W/m2
15:50 11.5 °C 7.2 °C 1022.9 hPa WSW 4.8 km/h 12.9 km/h 75% 0 mm 10 W/m2
16:00 11.3 °C 7 °C 1022.9 hPa WSW 3.2 km/h 16.1 km/h 75% 0 mm 5 W/m2
16:10 11.2 °C 7.3 °C 1022.9 hPa WSW 4.8 km/h 12.9 km/h 77% 0 mm 0 W/m2
16:20 11.1 °C 7.2 °C 1022.9 hPa WSW 8 km/h 12.9 km/h 77% 0 mm 0 W/m2
16:30 10.9 °C 7 °C 1022.6 hPa WSW 8 km/h 11.3 km/h 77% 0 mm 0 W/m2
16:40 10.7 °C 6.8 °C 1022.6 hPa WSW 8 km/h 12.9 km/h 77% 0 mm 0 W/m2
16:50 10.5 °C 6.8 °C 1022.6 hPa WSW 4.8 km/h 11.3 km/h 78% 0 mm 0 W/m2
17:00 10.3 °C 6.6 °C 1022.9 hPa WSW 3.2 km/h 9.7 km/h 78% 0 mm 0 W/m2
17:10 10.2 °C 6.7 °C 1022.6 hPa WSW 4.8 km/h 9.7 km/h 79% 0 mm 0 W/m2
17:20 10 °C 6.5 °C 1022.6 hPa WSW 3.2 km/h 8 km/h 79% 0 mm 0 W/m2
17:30 9.8 °C 6.3 °C 1022.6 hPa West 3.2 km/h 8 km/h 79% 0 mm 0 W/m2
17:40 9.6 °C 6.3 °C 1022.6 hPa WSW 3.2 km/h 6.4 km/h 80% 0 mm 0 W/m2
17:50 9.3 °C 6 °C 1022.6 hPa WSW 4.8 km/h 9.7 km/h 80% 0 mm 0 W/m2
18:00 9.3 °C 6.2 °C 1022.6 hPa WSW 3.2 km/h 8 km/h 81% 0 mm 0 W/m2
18:10 9 °C 5.9 °C 1022.6 hPa Calm   4.8 km/h 81% 0 mm 0 W/m2
18:20 8.7 °C 5.6 °C 1022.6 hPa West 1.6 km/h 4.8 km/h 81% 0 mm 0 W/m2
18:30 8.5 °C 5.8 °C 1022.6 hPa SE 1.6 km/h 4.8 km/h 83% 0 mm 0 W/m2
18:40 8.2 °C 5.5 °C 1022.6 hPa SSE 3.2 km/h 4.8 km/h 83% 0 mm 0 W/m2
18:50 7.9 °C 5.2 °C 1022.6 hPa SSE 3.2 km/h 8 km/h 83% 0 mm 0 W/m2
19:00 7.6 °C 4.9 °C 1022.6 hPa SSE 1.6 km/h 4.8 km/h 83% 0 mm 0 W/m2
19:10 7.3 °C 4.8 °C 1022.6 hPa SW 1.6 km/h 9.7 km/h 84% 0 mm 0 W/m2
19:20 7.1 °C 4.7 °C 1022.6 hPa Calm   8 km/h 85% 0 mm 0 W/m2
19:30 7 °C 4.6 °C 1022.2 hPa Calm   6.4 km/h 85% 0 mm 0 W/m2
19:40 6.7 °C 4.3 °C 1022.6 hPa South 3.2 km/h 9.7 km/h 85% 0 mm 0 W/m2
19:50 6.5 °C 4.3 °C 1022.2 hPa SSE 1.6 km/h 9.7 km/h 86% 0 mm 0 W/m2
20:00 6.3 °C 4.1 °C 1022.6 hPa SSE 1.6 km/h 4.8 km/h 86% 0 mm 0 W/m2
20:10 6.2 °C 4.3 °C 1022.6 hPa SE 1.6 km/h 6.4 km/h 88% 0 mm 0 W/m2
20:20 6.1 °C 4.2 °C 1022.6 hPa NW 1.6 km/h 3.2 km/h 88% 0 mm 0 W/m2
20:30 5.9 °C 4.1 °C 1022.6 hPa Calm   3.2 km/h 88% 0 mm 0 W/m2
20:40 5.7 °C 4 °C 1022.6 hPa Calm   3.2 km/h 89% 0 mm 0 W/m2
20:50 5.6 °C 3.9 °C 1022.6 hPa West 1.6 km/h 4.8 km/h 89% 0 mm 0 W/m2
21:00 5.6 °C 4.1 °C 1022.6 hPa SSE 3.2 km/h 6.4 km/h 90% 0 mm 0 W/m2
21:10 5.5 °C 3.8 °C 1022.6 hPa Calm   4.8 km/h 89% 0 mm 0 W/m2
21:20 5.5 °C 4 °C 1022.6 hPa SE 1.6 km/h 6.4 km/h 90% 0 mm 0 W/m2
21:30 5.5 °C 4 °C 1022.6 hPa ESE 3.2 km/h 8 km/h 90% 0 mm 0 W/m2
21:40 5.5 °C 4 °C 1022.6 hPa ESE 1.6 km/h 8 km/h 90% 0 mm 0 W/m2
21:50 5.3 °C 3.8 °C 1022.6 hPa ESE 1.6 km/h 8 km/h 90% 0 mm 0 W/m2
22:00 5.3 °C 3.9 °C 1022.6 hPa South 3.2 km/h 8 km/h 91% 0 mm 0 W/m2
22:10 5.3 °C 3.9 °C 1022.6 hPa SE 3.2 km/h 8 km/h 91% 0 mm 0 W/m2
22:20 5.3 °C 3.9 °C 1022.6 hPa SE 1.6 km/h 6.4 km/h 91% 0 mm 0 W/m2
22:30 5.2 °C 3.8 °C 1022.6 hPa SSE 1.6 km/h 6.4 km/h 91% 0 mm 0 W/m2
22:40 5.1 °C 3.8 °C 1022.6 hPa Calm   4.8 km/h 91% 0 mm 0 W/m2
22:50 5 °C 3.7 °C 1022.6 hPa ESE 1.6 km/h 4.8 km/h 91% 0 mm 0 W/m2
23:00 4.8 °C 3.4 °C 1022.6 hPa NNW 1.6 km/h 6.4 km/h 91% 0 mm 0 W/m2
Knjazevac, Serbia
Compliments of Weather Underground - 2 mb